sensor_id;sensor_type;location;lat;lon;timestamp;temperature;humidity
6443;DHT22;3254;47.372;8.512;2022-09-09T00:07:38;14.40;90.10
6443;DHT22;3254;47.372;8.512;2022-09-09T00:12:58;14.50;83.70
6443;DHT22;3254;47.372;8.512;2022-09-09T00:18:14;14.50;80.90
6443;DHT22;3254;47.372;8.512;2022-09-09T00:23:28;14.60;78.20
6443;DHT22;3254;47.372;8.512;2022-09-09T00:28:31;14.50;79.60
6443;DHT22;3254;47.372;8.512;2022-09-09T00:31:12;14.50;79.90
6443;DHT22;3254;47.372;8.512;2022-09-09T00:33:38;14.60;79.00
6443;DHT22;3254;47.372;8.512;2022-09-09T00:36:12;14.60;80.00
6443;DHT22;3254;47.372;8.512;2022-09-09T00:38:43;14.60;84.30
6443;DHT22;3254;47.372;8.512;2022-09-09T00:41:31;14.60;90.70
6443;DHT22;3254;47.372;8.512;2022-09-09T00:47:12;14.50;93.80
6443;DHT22;3254;47.372;8.512;2022-09-09T00:50:05;14.50;93.80
6443;DHT22;3254;47.372;8.512;2022-09-09T00:52:47;14.50;95.40
6443;DHT22;3254;47.372;8.512;2022-09-09T00:58:02;14.40;95.40
6443;DHT22;3254;47.372;8.512;2022-09-09T01:00:30;14.50;95.20
6443;DHT22;3254;47.372;8.512;2022-09-09T01:11:26;14.50;96.10
6443;DHT22;3254;47.372;8.512;2022-09-09T01:16:53;14.50;95.80
6443;DHT22;3254;47.372;8.512;2022-09-09T01:19:35;14.50;95.90
6443;DHT22;3254;47.372;8.512;2022-09-09T01:22:11;14.50;96.60
6443;DHT22;3254;47.372;8.512;2022-09-09T01:25:17;14.30;97.70
6443;DHT22;3254;47.372;8.512;2022-09-09T01:27:45;14.20;99.40
6443;DHT22;3254;47.372;8.512;2022-09-09T01:30:15;14.10;99.90
6443;DHT22;3254;47.372;8.512;2022-09-09T01:32:44;13.90;99.90
6443;DHT22;3254;47.372;8.512;2022-09-09T01:35:45;13.80;99.90
6443;DHT22;3254;47.372;8.512;2022-09-09T01:38:12;13.70;99.90
6443;DHT22;3254;47.372;8.512;2022-09-09T01:40:39;13.70;99.90
6443;DHT22;3254;47.372;8.512;2022-09-09T01:43:05;13.70;99.90
6443;DHT22;3254;47.372;8.512;2022-09-09T01:45:32;13.70;99.90
6443;DHT22;3254;47.372;8.512;2022-09-09T01:47:58;13.70;99.90
6443;DHT22;3254;47.372;8.512;2022-09-09T01:50:24;13.60;99.90
6443;DHT22;3254;47.372;8.512;2022-09-09T01:52:53;13.60;99.90
6443;DHT22;3254;47.372;8.512;2022-09-09T01:55:30;13.50;99.90
6443;DHT22;3254;47.372;8.512;2022-09-09T01:58:36;13.50;99.90
6443;DHT22;3254;47.372;8.512;2022-09-09T02:03:49;13.60;99.90
6443;DHT22;3254;47.372;8.512;2022-09-09T02:06:33;13.60;99.90
6443;DHT22;3254;47.372;8.512;2022-09-09T02:09:02;13.80;99.90
6443;DHT22;3254;47.372;8.512;2022-09-09T02:11:29;13.90;99.90
6443;DHT22;3254;47.372;8.512;2022-09-09T02:14:23;14.00;99.90
6443;DHT22;3254;47.372;8.512;2022-09-09T02:16:54;14.00;99.90
6443;DHT22;3254;47.372;8.512;2022-09-09T02:19:25;14.00;99.90
6443;DHT22;3254;47.372;8.512;2022-09-09T02:21:54;14.00;99.90
6443;DHT22;3254;47.372;8.512;2022-09-09T02:24:21;14.00;99.90
6443;DHT22;3254;47.372;8.512;2022-09-09T02:26:50;14.10;99.90
6443;DHT22;3254;47.372;8.512;2022-09-09T02:29:25;14.20;99.90
6443;DHT22;3254;47.372;8.512;2022-09-09T02:31:53;14.20;99.90
6443;DHT22;3254;47.372;8.512;2022-09-09T02:34:22;14.30;99.90
6443;DHT22;3254;47.372;8.512;2022-09-09T02:36:50;14.30;99.90
6443;DHT22;3254;47.372;8.512;2022-09-09T02:39:16;14.40;99.90
6443;DHT22;3254;47.372;8.512;2022-09-09T02:41:42;14.40;99.90
6443;DHT22;3254;47.372;8.512;2022-09-09T02:44:12;14.60;99.90
6443;DHT22;3254;47.372;8.512;2022-09-09T02:54:31;14.80;96.20
6443;DHT22;3254;47.372;8.512;2022-09-09T02:57:04;14.80;96.90
6443;DHT22;3254;47.372;8.512;2022-09-09T02:59:32;14.70;98.50
6443;DHT22;3254;47.372;8.512;2022-09-09T03:01:59;14.80;98.70
6443;DHT22;3254;47.372;8.512;2022-09-09T03:04:24;14.80;97.80
6443;DHT22;3254;47.372;8.512;2022-09-09T03:06:50;14.80;98.00
6443;DHT22;3254;47.372;8.512;2022-09-09T03:09:16;14.80;97.90
6443;DHT22;3254;47.372;8.512;2022-09-09T03:11:42;14.90;97.40
6443;DHT22;3254;47.372;8.512;2022-09-09T03:14:07;14.90;96.70
6443;DHT22;3254;47.372;8.512;2022-09-09T03:16:33;14.90;96.00
6443;DHT22;3254;47.372;8.512;2022-09-09T03:19:00;14.90;95.60
6443;DHT22;3254;47.372;8.512;2022-09-09T03:21:26;14.90;95.60
6443;DHT22;3254;47.372;8.512;2022-09-09T03:23:52;14.90;94.70
6443;DHT22;3254;47.372;8.512;2022-09-09T03:26:17;14.90;93.70
6443;DHT22;3254;47.372;8.512;2022-09-09T03:28:43;14.90;93.60
6443;DHT22;3254;47.372;8.512;2022-09-09T03:31:10;15.00;91.30
6443;DHT22;3254;47.372;8.512;2022-09-09T03:33:39;15.00;87.00
6443;DHT22;3254;47.372;8.512;2022-09-09T03:36:06;15.00;80.00
6443;DHT22;3254;47.372;8.512;2022-09-09T03:38:34;15.10;79.40
6443;DHT22;3254;47.372;8.512;2022-09-09T03:41:00;15.10;71.90
6443;DHT22;3254;47.372;8.512;2022-09-09T03:43:27;15.00;72.40
6443;DHT22;3254;47.372;8.512;2022-09-09T03:45:53;15.00;74.60
6443;DHT22;3254;47.372;8.512;2022-09-09T03:48:22;15.00;76.00
6443;DHT22;3254;47.372;8.512;2022-09-09T03:50:49;15.00;75.20
6443;DHT22;3254;47.372;8.512;2022-09-09T03:53:16;15.10;62.20
6443;DHT22;3254;47.372;8.512;2022-09-09T03:55:46;15.10;58.90
6443;DHT22;3254;47.372;8.512;2022-09-09T03:58:14;15.20;56.30
6443;DHT22;3254;47.372;8.512;2022-09-09T04:00:40;15.10;57.00
6443;DHT22;3254;47.372;8.512;2022-09-09T04:03:11;14.90;88.20
6443;DHT22;3254;47.372;8.512;2022-09-09T04:05:39;14.50;98.90
6443;DHT22;3254;47.372;8.512;2022-09-09T04:08:08;14.40;99.10
6443;DHT22;3254;47.372;8.512;2022-09-09T04:10:34;14.40;99.90
6443;DHT22;3254;47.372;8.512;2022-09-09T04:13:04;14.20;99.90
6443;DHT22;3254;47.372;8.512;2022-09-09T04:15:30;14.00;99.90
6443;DHT22;3254;47.372;8.512;2022-09-09T04:17:56;14.00;99.90
6443;DHT22;3254;47.372;8.512;2022-09-09T04:20:22;13.90;99.90
6443;DHT22;3254;47.372;8.512;2022-09-09T04:22:49;13.90;99.90
6443;DHT22;3254;47.372;8.512;2022-09-09T04:25:14;13.80;99.90
6443;DHT22;3254;47.372;8.512;2022-09-09T04:27:40;13.90;99.90
6443;DHT22;3254;47.372;8.512;2022-09-09T04:30:06;13.90;99.90
6443;DHT22;3254;47.372;8.512;2022-09-09T04:32:35;14.10;99.90
6443;DHT22;3254;47.372;8.512;2022-09-09T04:35:02;14.20;99.90
6443;DHT22;3254;47.372;8.512;2022-09-09T04:37:28;14.40;99.90
6443;DHT22;3254;47.372;8.512;2022-09-09T04:39:53;14.50;99.90
6443;DHT22;3254;47.372;8.512;2022-09-09T04:42:19;14.40;99.90
6443;DHT22;3254;47.372;8.512;2022-09-09T04:44:45;14.40;99.90
6443;DHT22;3254;47.372;8.512;2022-09-09T04:47:11;14.10;99.90
6443;DHT22;3254;47.372;8.512;2022-09-09T04:49:36;13.80;99.90
6443;DHT22;3254;47.372;8.512;2022-09-09T04:52:03;13.70;99.90
6443;DHT22;3254;47.372;8.512;2022-09-09T04:54:29;13.60;99.90
6443;DHT22;3254;47.372;8.512;2022-09-09T04:56:55;13.60;99.90
6443;DHT22;3254;47.372;8.512;2022-09-09T04:59:21;13.60;99.90
6443;DHT22;3254;47.372;8.512;2022-09-09T05:01:47;13.80;99.90
6443;DHT22;3254;47.372;8.512;2022-09-09T05:04:13;14.00;99.90
6443;DHT22;3254;47.372;8.512;2022-09-09T05:06:42;14.00;99.90
6443;DHT22;3254;47.372;8.512;2022-09-09T05:09:08;14.00;99.90
6443;DHT22;3254;47.372;8.512;2022-09-09T05:11:34;14.00;99.90
6443;DHT22;3254;47.372;8.512;2022-09-09T05:14:03;14.00;99.90
6443;DHT22;3254;47.372;8.512;2022-09-09T05:16:30;14.10;99.90
6443;DHT22;3254;47.372;8.512;2022-09-09T05:18:55;14.00;99.90
6443;DHT22;3254;47.372;8.512;2022-09-09T05:21:22;14.10;99.90
6443;DHT22;3254;47.372;8.512;2022-09-09T05:23:48;14.10;99.90
6443;DHT22;3254;47.372;8.512;2022-09-09T05:26:16;14.10;99.90
6443;DHT22;3254;47.372;8.512;2022-09-09T05:28:42;14.20;99.90
6443;DHT22;3254;47.372;8.512;2022-09-09T05:31:09;14.20;99.90
6443;DHT22;3254;47.372;8.512;2022-09-09T05:33:38;14.20;99.90
6443;DHT22;3254;47.372;8.512;2022-09-09T05:36:17;14.30;99.90
6443;DHT22;3254;47.372;8.512;2022-09-09T05:38:43;14.30;99.90
6443;DHT22;3254;47.372;8.512;2022-09-09T05:41:10;14.30;99.90
6443;DHT22;3254;47.372;8.512;2022-09-09T05:43:37;14.20;99.90
6443;DHT22;3254;47.372;8.512;2022-09-09T05:46:09;14.30;99.90
6443;DHT22;3254;47.372;8.512;2022-09-09T05:48:37;14.30;99.90
6443;DHT22;3254;47.372;8.512;2022-09-09T05:51:04;14.40;99.90
6443;DHT22;3254;47.372;8.512;2022-09-09T05:53:32;14.40;99.90
6443;DHT22;3254;47.372;8.512;2022-09-09T05:56:04;14.60;99.90
6443;DHT22;3254;47.372;8.512;2022-09-09T05:58:31;14.50;99.90
6443;DHT22;3254;47.372;8.512;2022-09-09T06:01:09;14.50;99.90
6443;DHT22;3254;47.372;8.512;2022-09-09T06:03:40;14.70;99.90
6443;DHT22;3254;47.372;8.512;2022-09-09T06:06:08;14.70;99.90
6443;DHT22;3254;47.372;8.512;2022-09-09T06:08:35;14.80;99.90
6443;DHT22;3254;47.372;8.512;2022-09-09T06:11:10;14.90;99.90
6443;DHT22;3254;47.372;8.512;2022-09-09T06:13:36;15.00;99.90
6443;DHT22;3254;47.372;8.512;2022-09-09T06:16:17;15.10;99.90
6443;DHT22;3254;47.372;8.512;2022-09-09T06:18:43;15.10;99.90
6443;DHT22;3254;47.372;8.512;2022-09-09T06:21:15;15.20;99.90
6443;DHT22;3254;47.372;8.512;2022-09-09T06:23:41;15.40;95.10
6443;DHT22;3254;47.372;8.512;2022-09-09T06:28:35;15.50;90.90
6443;DHT22;3254;47.372;8.512;2022-09-09T06:31:03;15.60;88.10
6443;DHT22;3254;47.372;8.512;2022-09-09T06:33:37;15.70;81.10
6443;DHT22;3254;47.372;8.512;2022-09-09T06:36:05;15.80;84.60
6443;DHT22;3254;47.372;8.512;2022-09-09T06:38:31;15.90;84.20
6443;DHT22;3254;47.372;8.512;2022-09-09T06:40:58;16.00;73.70
6443;DHT22;3254;47.372;8.512;2022-09-09T06:43:27;16.20;64.50
6443;DHT22;3254;47.372;8.512;2022-09-09T06:48:22;16.50;60.90
6443;DHT22;3254;47.372;8.512;2022-09-09T06:50:48;16.60;53.50
6443;DHT22;3254;47.372;8.512;2022-09-09T06:53:18;16.80;48.40
6443;DHT22;3254;47.372;8.512;2022-09-09T06:55:46;17.00;43.70
6443;DHT22;3254;47.372;8.512;2022-09-09T06:58:13;17.20;39.80
6443;DHT22;3254;47.372;8.512;2022-09-09T07:00:39;17.20;36.30
6443;DHT22;3254;47.372;8.512;2022-09-09T07:03:04;17.20;34.40
6443;DHT22;3254;47.372;8.512;2022-09-09T07:05:31;17.20;33.90
6443;DHT22;3254;47.372;8.512;2022-09-09T07:07:57;17.10;30.00
6443;DHT22;3254;47.372;8.512;2022-09-09T07:10:23;17.00;29.20
6443;DHT22;3254;47.372;8.512;2022-09-09T07:12:52;17.10;30.10
6443;DHT22;3254;47.372;8.512;2022-09-09T07:15:18;17.00;28.00
6443;DHT22;3254;47.372;8.512;2022-09-09T07:17:44;16.90;26.30
6443;DHT22;3254;47.372;8.512;2022-09-09T07:20:11;16.70;27.60
6443;DHT22;3254;47.372;8.512;2022-09-09T07:22:36;16.50;31.30
6443;DHT22;3254;47.372;8.512;2022-09-09T07:25:03;16.50;32.00
6443;DHT22;3254;47.372;8.512;2022-09-09T07:27:29;16.40;32.80
6443;DHT22;3254;47.372;8.512;2022-09-09T07:29:55;16.40;32.30
6443;DHT22;3254;47.372;8.512;2022-09-09T07:32:21;16.50;31.70
6443;DHT22;3254;47.372;8.512;2022-09-09T07:34:46;16.70;30.50
6443;DHT22;3254;47.372;8.512;2022-09-09T07:37:12;16.90;26.20
6443;DHT22;3254;47.372;8.512;2022-09-09T07:39:39;17.10;26.60
6443;DHT22;3254;47.372;8.512;2022-09-09T07:42:05;17.50;20.80
6443;DHT22;3254;47.372;8.512;2022-09-09T07:44:31;18.20;18.40
6443;DHT22;3254;47.372;8.512;2022-09-09T07:47:00;19.40;7.80
6443;DHT22;3254;47.372;8.512;2022-09-09T07:49:26;20.60;1.00
6443;DHT22;3254;47.372;8.512;2022-09-09T07:51:52;21.00;1.00
6443;DHT22;3254;47.372;8.512;2022-09-09T07:54:19;20.30;1.00
6443;DHT22;3254;47.372;8.512;2022-09-09T07:56:46;20.40;1.00
6443;DHT22;3254;47.372;8.512;2022-09-09T07:59:12;20.90;1.00
6443;DHT22;3254;47.372;8.512;2022-09-09T08:01:43;20.90;1.00
6443;DHT22;3254;47.372;8.512;2022-09-09T08:04:13;21.40;1.00
6443;DHT22;3254;47.372;8.512;2022-09-09T08:06:42;22.10;1.00
6443;DHT22;3254;47.372;8.512;2022-09-09T08:09:09;22.20;1.00
6443;DHT22;3254;47.372;8.512;2022-09-09T08:11:35;23.10;1.00
6443;DHT22;3254;47.372;8.512;2022-09-09T08:14:02;23.50;1.00
6443;DHT22;3254;47.372;8.512;2022-09-09T08:16:31;23.40;1.00
6443;DHT22;3254;47.372;8.512;2022-09-09T08:18:58;23.70;1.00
6443;DHT22;3254;47.372;8.512;2022-09-09T08:21:26;23.20;1.00
6443;DHT22;3254;47.372;8.512;2022-09-09T08:23:54;22.50;1.00
6443;DHT22;3254;47.372;8.512;2022-09-09T08:26:25;22.10;1.00
6443;DHT22;3254;47.372;8.512;2022-09-09T08:28:54;21.80;1.00
6443;DHT22;3254;47.372;8.512;2022-09-09T08:31:26;22.00;1.00
6443;DHT22;3254;47.372;8.512;2022-09-09T08:33:56;21.70;1.00
6443;DHT22;3254;47.372;8.512;2022-09-09T08:36:27;22.20;1.00
6443;DHT22;3254;47.372;8.512;2022-09-09T08:38:55;23.20;1.00
6443;DHT22;3254;47.372;8.512;2022-09-09T08:47:05;24.10;1.00
6443;DHT22;3254;47.372;8.512;2022-09-09T08:52:29;25.00;1.00
6443;DHT22;3254;47.372;8.512;2022-09-09T08:55:12;24.90;1.00
6443;DHT22;3254;47.372;8.512;2022-09-09T08:57:40;25.10;1.00
6443;DHT22;3254;47.372;8.512;2022-09-09T09:00:09;25.20;1.00
6443;DHT22;3254;47.372;8.512;2022-09-09T09:02:57;24.60;1.00
6443;DHT22;3254;47.372;8.512;2022-09-09T09:05:42;24.50;1.00
6443;DHT22;3254;47.372;8.512;2022-09-09T09:10:56;25.70;1.00
6443;DHT22;3254;47.372;8.512;2022-09-09T09:16:36;26.90;1.00
6443;DHT22;3254;47.372;8.512;2022-09-09T09:19:05;26.10;1.00
6443;DHT22;3254;47.372;8.512;2022-09-09T09:21:41;24.60;1.00
6443;DHT22;3254;47.372;8.512;2022-09-09T09:24:27;22.90;1.00
6443;DHT22;3254;47.372;8.512;2022-09-09T09:26:59;21.60;1.00
6443;DHT22;3254;47.372;8.512;2022-09-09T09:29:26;21.10;1.00
6443;DHT22;3254;47.372;8.512;2022-09-09T09:31:54;21.40;1.00
6443;DHT22;3254;47.372;8.512;2022-09-09T09:34:20;21.30;1.00
6443;DHT22;3254;47.372;8.512;2022-09-09T09:36:53;21.50;1.00
6443;DHT22;3254;47.372;8.512;2022-09-09T09:39:28;21.70;1.00
6443;DHT22;3254;47.372;8.512;2022-09-09T09:41:54;21.70;1.00
6443;DHT22;3254;47.372;8.512;2022-09-09T09:46:51;22.00;1.00
6443;DHT22;3254;47.372;8.512;2022-09-09T09:49:17;22.10;1.00
6443;DHT22;3254;47.372;8.512;2022-09-09T09:51:43;22.30;1.00
6443;DHT22;3254;47.372;8.512;2022-09-09T09:56:39;23.40;1.00
6443;DHT22;3254;47.372;8.512;2022-09-09T09:59:05;24.40;1.00
6443;DHT22;3254;47.372;8.512;2022-09-09T10:01:38;24.50;1.00
6443;DHT22;3254;47.372;8.512;2022-09-09T10:04:22;24.60;1.00
6443;DHT22;3254;47.372;8.512;2022-09-09T10:06:49;24.80;1.00
6443;DHT22;3254;47.372;8.512;2022-09-09T10:09:31;24.10;1.00
6443;DHT22;3254;47.372;8.512;2022-09-09T10:18:12;22.10;1.00
6443;DHT22;3254;47.372;8.512;2022-09-09T10:21:25;22.30;1.00
6443;DHT22;3254;47.372;8.512;2022-09-09T10:26:48;25.00;1.00
6443;DHT22;3254;47.372;8.512;2022-09-09T10:35:04;24.80;1.00
6443;DHT22;3254;47.372;8.512;2022-09-09T10:38:01;25.50;1.00
6443;DHT22;3254;47.372;8.512;2022-09-09T10:40:42;26.20;1.00
6443;DHT22;3254;47.372;8.512;2022-09-09T10:51:40;21.60;1.00
6443;DHT22;3254;47.372;8.512;2022-09-09T10:54:18;22.60;1.00
6443;DHT22;3254;47.372;8.512;2022-09-09T10:56:52;24.10;1.00
6443;DHT22;3254;47.372;8.512;2022-09-09T10:59:26;26.00;1.00
6443;DHT22;3254;47.372;8.512;2022-09-09T11:02:05;27.60;1.00
6443;DHT22;3254;47.372;8.512;2022-09-09T11:04:42;28.70;1.00
6443;DHT22;3254;47.372;8.512;2022-09-09T11:07:13;29.10;1.00
6443;DHT22;3254;47.372;8.512;2022-09-09T11:09:45;28.60;1.00
6443;DHT22;3254;47.372;8.512;2022-09-09T11:12:18;28.30;1.00
6443;DHT22;3254;47.372;8.512;2022-09-09T11:14:59;27.90;1.00
6443;DHT22;3254;47.372;8.512;2022-09-09T11:17:56;27.20;1.00
6443;DHT22;3254;47.372;8.512;2022-09-09T11:20:25;26.90;1.00
6443;DHT22;3254;47.372;8.512;2022-09-09T11:25:35;27.00;1.00
6443;DHT22;3254;47.372;8.512;2022-09-09T11:28:22;26.30;1.00
6443;DHT22;3254;47.372;8.512;2022-09-09T11:36:53;29.10;1.00
6443;DHT22;3254;47.372;8.512;2022-09-09T11:44:41;32.50;1.00
6443;DHT22;3254;47.372;8.512;2022-09-09T11:47:26;32.60;1.00
6443;DHT22;3254;47.372;8.512;2022-09-09T11:52:42;31.30;1.00
6443;DHT22;3254;47.372;8.512;2022-09-09T11:55:27;29.90;1.00
6443;DHT22;3254;47.372;8.512;2022-09-09T11:58:24;29.10;1.00
6443;DHT22;3254;47.372;8.512;2022-09-09T12:00:49;29.10;1.00
6443;DHT22;3254;47.372;8.512;2022-09-09T12:03:35;28.10;1.00
6443;DHT22;3254;47.372;8.512;2022-09-09T12:06:19;27.90;1.00
6443;DHT22;3254;47.372;8.512;2022-09-09T12:08:53;28.90;1.00
6443;DHT22;3254;47.372;8.512;2022-09-09T12:11:29;28.80;1.00
6443;DHT22;3254;47.372;8.512;2022-09-09T12:13:57;27.60;1.00
6443;DHT22;3254;47.372;8.512;2022-09-09T12:16:33;26.20;1.00
6443;DHT22;3254;47.372;8.512;2022-09-09T12:27:36;24.00;1.00
6443;DHT22;3254;47.372;8.512;2022-09-09T12:30:16;24.00;1.00
6443;DHT22;3254;47.372;8.512;2022-09-09T12:32:42;24.30;1.00
6443;DHT22;3254;47.372;8.512;2022-09-09T12:37:36;24.60;1.00
6443;DHT22;3254;47.372;8.512;2022-09-09T12:40:35;26.30;1.00
6443;DHT22;3254;47.372;8.512;2022-09-09T12:43:18;26.40;1.00
6443;DHT22;3254;47.372;8.512;2022-09-09T12:45:45;25.90;1.00
6443;DHT22;3254;47.372;8.512;2022-09-09T12:48:11;25.00;1.00
6443;DHT22;3254;47.372;8.512;2022-09-09T12:50:49;24.10;1.00
6443;DHT22;3254;47.372;8.512;2022-09-09T12:53:35;23.80;1.00
6443;DHT22;3254;47.372;8.512;2022-09-09T12:56:07;23.80;1.00
6443;DHT22;3254;47.372;8.512;2022-09-09T12:58:35;24.10;1.00
6443;DHT22;3254;47.372;8.512;2022-09-09T13:01:03;24.00;1.00
6443;DHT22;3254;47.372;8.512;2022-09-09T13:03:33;23.90;1.00
6443;DHT22;3254;47.372;8.512;2022-09-09T13:06:11;23.90;1.00
6443;DHT22;3254;47.372;8.512;2022-09-09T13:08:37;24.70;1.00
6443;DHT22;3254;47.372;8.512;2022-09-09T13:11:07;25.80;1.00
6443;DHT22;3254;47.372;8.512;2022-09-09T13:13:36;26.10;1.00
6443;DHT22;3254;47.372;8.512;2022-09-09T13:16:05;27.00;1.00
6443;DHT22;3254;47.372;8.512;2022-09-09T13:18:35;27.40;1.00
6443;DHT22;3254;47.372;8.512;2022-09-09T13:21:01;27.20;1.00
6443;DHT22;3254;47.372;8.512;2022-09-09T13:23:34;26.50;1.00
6443;DHT22;3254;47.372;8.512;2022-09-09T13:26:04;26.10;1.00
6443;DHT22;3254;47.372;8.512;2022-09-09T13:28:32;25.40;1.00
6443;DHT22;3254;47.372;8.512;2022-09-09T13:31:03;25.50;1.00
6443;DHT22;3254;47.372;8.512;2022-09-09T13:33:39;25.20;1.00
6443;DHT22;3254;47.372;8.512;2022-09-09T13:36:11;25.60;1.00
6443;DHT22;3254;47.372;8.512;2022-09-09T13:38:53;26.70;1.00
6443;DHT22;3254;47.372;8.512;2022-09-09T13:41:21;26.50;1.00
6443;DHT22;3254;47.372;8.512;2022-09-09T13:43:49;26.30;1.00
6443;DHT22;3254;47.372;8.512;2022-09-09T13:49:17;27.80;1.00
6443;DHT22;3254;47.372;8.512;2022-09-09T13:51:47;28.40;1.00
6443;DHT22;3254;47.372;8.512;2022-09-09T13:54:16;29.50;1.00
6443;DHT22;3254;47.372;8.512;2022-09-09T13:56:47;29.00;1.00
6443;DHT22;3254;47.372;8.512;2022-09-09T13:59:19;29.10;1.00
6443;DHT22;3254;47.372;8.512;2022-09-09T14:01:49;28.70;1.00
6443;DHT22;3254;47.372;8.512;2022-09-09T14:04:18;27.90;1.00
6443;DHT22;3254;47.372;8.512;2022-09-09T14:06:46;28.50;1.00
6443;DHT22;3254;47.372;8.512;2022-09-09T14:09:14;29.00;1.00
6443;DHT22;3254;47.372;8.512;2022-09-09T14:11:40;29.10;1.00
6443;DHT22;3254;47.372;8.512;2022-09-09T14:14:06;28.40;1.00
6443;DHT22;3254;47.372;8.512;2022-09-09T14:16:32;28.10;1.00
6443;DHT22;3254;47.372;8.512;2022-09-09T14:18:58;28.80;1.00
6443;DHT22;3254;47.372;8.512;2022-09-09T14:21:25;28.30;1.00
6443;DHT22;3254;47.372;8.512;2022-09-09T14:23:51;28.90;1.00
6443;DHT22;3254;47.372;8.512;2022-09-09T14:26:18;29.90;1.00
6443;DHT22;3254;47.372;8.512;2022-09-09T14:28:47;30.50;1.00
6443;DHT22;3254;47.372;8.512;2022-09-09T14:31:13;30.80;1.00
6443;DHT22;3254;47.372;8.512;2022-09-09T14:33:39;30.80;1.00
6443;DHT22;3254;47.372;8.512;2022-09-09T14:36:05;30.30;1.00
6443;DHT22;3254;47.372;8.512;2022-09-09T14:38:33;30.10;1.00
6443;DHT22;3254;47.372;8.512;2022-09-09T14:41:00;28.90;1.00
6443;DHT22;3254;47.372;8.512;2022-09-09T14:43:28;29.10;1.00
6443;DHT22;3254;47.372;8.512;2022-09-09T14:45:55;30.00;1.00
6443;DHT22;3254;47.372;8.512;2022-09-09T14:48:21;29.70;1.00
6443;DHT22;3254;47.372;8.512;2022-09-09T14:50:46;29.40;1.00
6443;DHT22;3254;47.372;8.512;2022-09-09T14:53:12;29.80;1.00
6443;DHT22;3254;47.372;8.512;2022-09-09T14:55:38;30.20;1.00
6443;DHT22;3254;47.372;8.512;2022-09-09T14:58:04;30.60;1.00
6443;DHT22;3254;47.372;8.512;2022-09-09T15:00:31;30.80;1.00
6443;DHT22;3254;47.372;8.512;2022-09-09T15:02:57;30.60;1.00
6443;DHT22;3254;47.372;8.512;2022-09-09T15:05:23;31.50;1.00
6443;DHT22;3254;47.372;8.512;2022-09-09T15:07:49;31.70;1.00
6443;DHT22;3254;47.372;8.512;2022-09-09T15:10:15;32.30;1.00
6443;DHT22;3254;47.372;8.512;2022-09-09T15:12:42;32.20;1.00
6443;DHT22;3254;47.372;8.512;2022-09-09T15:15:09;31.90;1.00
6443;DHT22;3254;47.372;8.512;2022-09-09T15:17:35;32.00;1.00
6443;DHT22;3254;47.372;8.512;2022-09-09T15:20:03;31.60;1.00
6443;DHT22;3254;47.372;8.512;2022-09-09T15:22:28;31.30;1.00
6443;DHT22;3254;47.372;8.512;2022-09-09T15:24:54;31.90;1.00
6443;DHT22;3254;47.372;8.512;2022-09-09T15:27:20;31.30;1.00
6443;DHT22;3254;47.372;8.512;2022-09-09T15:29:45;30.50;1.00
6443;DHT22;3254;47.372;8.512;2022-09-09T15:32:12;31.30;1.00
6443;DHT22;3254;47.372;8.512;2022-09-09T15:34:38;32.20;1.00
6443;DHT22;3254;47.372;8.512;2022-09-09T15:37:04;32.30;1.00
6443;DHT22;3254;47.372;8.512;2022-09-09T15:39:29;32.80;1.00
6443;DHT22;3254;47.372;8.512;2022-09-09T15:41:55;33.60;1.00
6443;DHT22;3254;47.372;8.512;2022-09-09T15:44:21;33.10;1.00
6443;DHT22;3254;47.372;8.512;2022-09-09T15:46:52;32.50;1.00
6443;DHT22;3254;47.372;8.512;2022-09-09T15:49:23;31.60;1.00
6443;DHT22;3254;47.372;8.512;2022-09-09T15:51:54;30.30;1.00
6443;DHT22;3254;47.372;8.512;2022-09-09T15:54:21;30.60;1.00
6443;DHT22;3254;47.372;8.512;2022-09-09T15:56:56;31.10;1.00
6443;DHT22;3254;47.372;8.512;2022-09-09T15:59:23;31.00;1.00
6443;DHT22;3254;47.372;8.512;2022-09-09T16:01:49;30.40;1.00
6443;DHT22;3254;47.372;8.512;2022-09-09T16:04:18;30.10;1.00
6443;DHT22;3254;47.372;8.512;2022-09-09T16:06:55;29.00;1.00
6443;DHT22;3254;47.372;8.512;2022-09-09T16:09:22;27.30;1.00
6443;DHT22;3254;47.372;8.512;2022-09-09T16:11:48;26.60;1.00
6443;DHT22;3254;47.372;8.512;2022-09-09T16:14:14;27.00;1.00
6443;DHT22;3254;47.372;8.512;2022-09-09T16:16:43;27.10;1.00
6443;DHT22;3254;47.372;8.512;2022-09-09T16:19:11;27.20;1.00
6443;DHT22;3254;47.372;8.512;2022-09-09T16:21:43;27.20;1.00
6443;DHT22;3254;47.372;8.512;2022-09-09T16:24:12;26.80;1.00
6443;DHT22;3254;47.372;8.512;2022-09-09T16:26:40;25.90;1.00
6443;DHT22;3254;47.372;8.512;2022-09-09T16:29:06;24.50;1.00
6443;DHT22;3254;47.372;8.512;2022-09-09T16:31:32;23.80;1.00
6443;DHT22;3254;47.372;8.512;2022-09-09T16:33:58;23.10;1.00
6443;DHT22;3254;47.372;8.512;2022-09-09T16:36:26;22.70;1.00
6443;DHT22;3254;47.372;8.512;2022-09-09T16:38:57;22.40;1.00
6443;DHT22;3254;47.372;8.512;2022-09-09T16:41:24;22.20;1.00
6443;DHT22;3254;47.372;8.512;2022-09-09T16:43:56;22.00;1.00
6443;DHT22;3254;47.372;8.512;2022-09-09T16:46:23;21.70;1.00
6443;DHT22;3254;47.372;8.512;2022-09-09T16:48:50;21.40;1.00
6443;DHT22;3254;47.372;8.512;2022-09-09T16:51:18;21.30;1.00
6443;DHT22;3254;47.372;8.512;2022-09-09T16:53:44;21.20;1.00
6443;DHT22;3254;47.372;8.512;2022-09-09T16:56:20;21.10;1.00
6443;DHT22;3254;47.372;8.512;2022-09-09T16:59:06;21.10;1.00
6443;DHT22;3254;47.372;8.512;2022-09-09T17:01:35;21.00;1.00
6443;DHT22;3254;47.372;8.512;2022-09-09T17:04:08;20.90;1.00
6443;DHT22;3254;47.372;8.512;2022-09-09T17:06:34;20.80;1.00
6443;DHT22;3254;47.372;8.512;2022-09-09T17:09:09;20.80;1.00
6443;DHT22;3254;47.372;8.512;2022-09-09T17:11:37;20.70;1.00
6443;DHT22;3254;47.372;8.512;2022-09-09T17:14:03;20.70;1.00
6443;DHT22;3254;47.372;8.512;2022-09-09T17:16:30;20.60;1.00
6443;DHT22;3254;47.372;8.512;2022-09-09T17:18:57;20.40;1.00
6443;DHT22;3254;47.372;8.512;2022-09-09T17:21:25;20.30;1.00
6443;DHT22;3254;47.372;8.512;2022-09-09T17:23:52;20.00;1.00
6443;DHT22;3254;47.372;8.512;2022-09-09T17:26:20;19.70;1.00
6443;DHT22;3254;47.372;8.512;2022-09-09T17:28:47;19.40;1.00
6443;DHT22;3254;47.372;8.512;2022-09-09T17:31:15;19.20;1.00
6443;DHT22;3254;47.372;8.512;2022-09-09T17:33:43;19.10;1.00
6443;DHT22;3254;47.372;8.512;2022-09-09T17:36:18;18.90;1.00
6443;DHT22;3254;47.372;8.512;2022-09-09T17:38:44;18.80;1.00
6443;DHT22;3254;47.372;8.512;2022-09-09T17:41:24;18.70;1.00
6443;DHT22;3254;47.372;8.512;2022-09-09T17:43:50;18.70;1.00
6443;DHT22;3254;47.372;8.512;2022-09-09T17:46:22;18.50;1.00
6443;DHT22;3254;47.372;8.512;2022-09-09T17:48:50;18.20;1.00
6443;DHT22;3254;47.372;8.512;2022-09-09T17:51:21;17.80;1.00
6443;DHT22;3254;47.372;8.512;2022-09-09T17:53:51;17.50;1.00
6443;DHT22;3254;47.372;8.512;2022-09-09T17:56:19;17.40;1.00
6443;DHT22;3254;47.372;8.512;2022-09-09T17:58:49;17.40;1.00
6443;DHT22;3254;47.372;8.512;2022-09-09T18:01:28;17.40;1.00
6443;DHT22;3254;47.372;8.512;2022-09-09T18:03:54;17.50;1.00
6443;DHT22;3254;47.372;8.512;2022-09-09T18:06:25;17.40;1.00
6443;DHT22;3254;47.372;8.512;2022-09-09T18:08:59;17.10;1.00
6443;DHT22;3254;47.372;8.512;2022-09-09T18:11:28;16.90;1.00
6443;DHT22;3254;47.372;8.512;2022-09-09T18:13:57;16.80;1.00
6443;DHT22;3254;47.372;8.512;2022-09-09T18:16:25;16.80;1.00
6443;DHT22;3254;47.372;8.512;2022-09-09T18:18:53;16.80;1.00
6443;DHT22;3254;47.372;8.512;2022-09-09T18:21:19;16.90;1.00
6443;DHT22;3254;47.372;8.512;2022-09-09T18:23:45;16.90;1.00
6443;DHT22;3254;47.372;8.512;2022-09-09T18:26:15;16.90;1.00
6443;DHT22;3254;47.372;8.512;2022-09-09T18:28:42;15.70;1.00
6443;DHT22;3254;47.372;8.512;2022-09-09T18:31:11;15.00;1.00
6443;DHT22;3254;47.372;8.512;2022-09-09T18:33:39;15.10;1.00